sensor_id;sensor_type;location;lat;lon;timestamp;temperature;humidity
674;DHT22;319;48.764;9.174;2023-06-22T00:00:14;23.50;99.90
674;DHT22;319;48.764;9.174;2023-06-22T00:02:41;23.50;99.90
674;DHT22;319;48.764;9.174;2023-06-22T00:05:07;23.40;99.90
674;DHT22;319;48.764;9.174;2023-06-22T00:07:34;23.30;99.90
674;DHT22;319;48.764;9.174;2023-06-22T00:10:03;23.30;99.90
674;DHT22;319;48.764;9.174;2023-06-22T00:12:30;23.30;99.90
674;DHT22;319;48.764;9.174;2023-06-22T00:15:00;23.30;99.90
674;DHT22;319;48.764;9.174;2023-06-22T00:17:27;23.30;99.90
674;DHT22;319;48.764;9.174;2023-06-22T00:19:54;23.30;99.90
674;DHT22;319;48.764;9.174;2023-06-22T00:22:24;23.30;99.90
674;DHT22;319;48.764;9.174;2023-06-22T00:24:54;23.20;99.90
674;DHT22;319;48.764;9.174;2023-06-22T00:27:23;23.20;99.90
674;DHT22;319;48.764;9.174;2023-06-22T00:29:50;23.10;99.90
674;DHT22;319;48.764;9.174;2023-06-22T00:32:17;23.10;99.90
674;DHT22;319;48.764;9.174;2023-06-22T00:34:44;23.10;99.90
674;DHT22;319;48.764;9.174;2023-06-22T00:37:11;23.10;99.90
674;DHT22;319;48.764;9.174;2023-06-22T00:39:38;23.10;99.90
674;DHT22;319;48.764;9.174;2023-06-22T00:42:05;23.20;99.90
674;DHT22;319;48.764;9.174;2023-06-22T00:44:34;23.10;99.90
674;DHT22;319;48.764;9.174;2023-06-22T00:47:02;23.10;99.90
674;DHT22;319;48.764;9.174;2023-06-22T00:49:29;23.00;99.90
674;DHT22;319;48.764;9.174;2023-06-22T00:51:57;23.00;99.90
674;DHT22;319;48.764;9.174;2023-06-22T00:54:24;23.00;99.90
674;DHT22;319;48.764;9.174;2023-06-22T00:56:51;22.90;99.90
674;DHT22;319;48.764;9.174;2023-06-22T00:59:20;22.90;99.90
674;DHT22;319;48.764;9.174;2023-06-22T01:01:49;22.90;99.90
674;DHT22;319;48.764;9.174;2023-06-22T01:04:16;23.00;99.90
674;DHT22;319;48.764;9.174;2023-06-22T01:06:53;23.00;99.90
674;DHT22;319;48.764;9.174;2023-06-22T01:09:46;23.00;99.90
674;DHT22;319;48.764;9.174;2023-06-22T01:12:16;23.00;99.90
674;DHT22;319;48.764;9.174;2023-06-22T01:14:49;23.00;99.90
674;DHT22;319;48.764;9.174;2023-06-22T01:17:19;23.00;99.90
674;DHT22;319;48.764;9.174;2023-06-22T01:19:49;22.90;99.90
674;DHT22;319;48.764;9.174;2023-06-22T01:22:22;22.80;99.90
674;DHT22;319;48.764;9.174;2023-06-22T01:24:57;22.80;99.90
674;DHT22;319;48.764;9.174;2023-06-22T01:27:32;22.80;99.90
674;DHT22;319;48.764;9.174;2023-06-22T01:30:05;22.70;99.90
674;DHT22;319;48.764;9.174;2023-06-22T01:32:38;22.80;99.90
674;DHT22;319;48.764;9.174;2023-06-22T01:35:07;22.80;99.90
674;DHT22;319;48.764;9.174;2023-06-22T01:37:35;22.70;99.90
674;DHT22;319;48.764;9.174;2023-06-22T01:40:04;22.80;99.90
674;DHT22;319;48.764;9.174;2023-06-22T01:42:32;22.80;99.90
674;DHT22;319;48.764;9.174;2023-06-22T01:44:59;22.80;99.90
674;DHT22;319;48.764;9.174;2023-06-22T01:47:28;22.70;99.90
674;DHT22;319;48.764;9.174;2023-06-22T01:49:55;22.80;99.90
674;DHT22;319;48.764;9.174;2023-06-22T01:52:22;22.70;99.90
674;DHT22;319;48.764;9.174;2023-06-22T01:54:49;22.80;99.90
674;DHT22;319;48.764;9.174;2023-06-22T01:57:16;22.70;99.90
674;DHT22;319;48.764;9.174;2023-06-22T01:59:48;22.70;99.90
674;DHT22;319;48.764;9.174;2023-06-22T02:02:19;22.70;99.90
674;DHT22;319;48.764;9.174;2023-06-22T02:04:57;22.70;99.90
674;DHT22;319;48.764;9.174;2023-06-22T02:07:29;22.70;99.90
674;DHT22;319;48.764;9.174;2023-06-22T02:09:59;22.70;99.90
674;DHT22;319;48.764;9.174;2023-06-22T02:12:29;22.60;99.90
674;DHT22;319;48.764;9.174;2023-06-22T02:14:57;22.60;99.90
674;DHT22;319;48.764;9.174;2023-06-22T02:17:26;22.60;99.90
674;DHT22;319;48.764;9.174;2023-06-22T02:19:55;22.50;99.90
674;DHT22;319;48.764;9.174;2023-06-22T02:22:21;22.50;99.90
674;DHT22;319;48.764;9.174;2023-06-22T02:24:49;22.40;99.90
674;DHT22;319;48.764;9.174;2023-06-22T02:27:16;22.40;99.90
674;DHT22;319;48.764;9.174;2023-06-22T02:29:43;22.50;99.90
674;DHT22;319;48.764;9.174;2023-06-22T02:32:10;22.50;99.90
674;DHT22;319;48.764;9.174;2023-06-22T02:34:36;22.50;99.90
674;DHT22;319;48.764;9.174;2023-06-22T02:37:05;22.50;99.90
674;DHT22;319;48.764;9.174;2023-06-22T02:39:32;22.50;99.90
674;DHT22;319;48.764;9.174;2023-06-22T02:41:59;22.40;99.90
674;DHT22;319;48.764;9.174;2023-06-22T02:44:26;22.40;99.90
674;DHT22;319;48.764;9.174;2023-06-22T02:46:53;22.30;99.90
674;DHT22;319;48.764;9.174;2023-06-22T02:49:20;22.20;99.90
674;DHT22;319;48.764;9.174;2023-06-22T02:51:48;22.10;99.90
674;DHT22;319;48.764;9.174;2023-06-22T02:54:16;22.10;99.90
674;DHT22;319;48.764;9.174;2023-06-22T02:56:43;22.10;99.90
674;DHT22;319;48.764;9.174;2023-06-22T02:59:10;22.10;99.90
674;DHT22;319;48.764;9.174;2023-06-22T03:01:37;22.10;99.90
674;DHT22;319;48.764;9.174;2023-06-22T03:04:05;22.10;99.90
674;DHT22;319;48.764;9.174;2023-06-22T03:06:33;22.10;99.90
674;DHT22;319;48.764;9.174;2023-06-22T03:09:01;22.10;99.90
674;DHT22;319;48.764;9.174;2023-06-22T03:11:30;22.10;99.90
674;DHT22;319;48.764;9.174;2023-06-22T03:13:57;22.10;99.90
674;DHT22;319;48.764;9.174;2023-06-22T03:16:25;22.10;99.90
674;DHT22;319;48.764;9.174;2023-06-22T03:18:52;22.10;99.90
674;DHT22;319;48.764;9.174;2023-06-22T03:21:21;22.10;99.90
674;DHT22;319;48.764;9.174;2023-06-22T03:23:48;22.00;99.90
674;DHT22;319;48.764;9.174;2023-06-22T03:26:16;21.90;99.90
674;DHT22;319;48.764;9.174;2023-06-22T03:28:44;21.90;99.90
674;DHT22;319;48.764;9.174;2023-06-22T03:31:11;21.90;99.90
674;DHT22;319;48.764;9.174;2023-06-22T03:33:38;21.90;99.90
674;DHT22;319;48.764;9.174;2023-06-22T03:36:05;21.90;99.90
674;DHT22;319;48.764;9.174;2023-06-22T03:38:32;21.90;99.90
674;DHT22;319;48.764;9.174;2023-06-22T03:40:59;21.90;99.90
674;DHT22;319;48.764;9.174;2023-06-22T03:43:26;21.80;99.90
674;DHT22;319;48.764;9.174;2023-06-22T03:45:54;21.80;99.90
674;DHT22;319;48.764;9.174;2023-06-22T03:48:21;21.80;99.90
674;DHT22;319;48.764;9.174;2023-06-22T03:50:48;21.80;99.90
674;DHT22;319;48.764;9.174;2023-06-22T03:53:15;21.80;99.90
674;DHT22;319;48.764;9.174;2023-06-22T03:55:48;21.90;99.90
674;DHT22;319;48.764;9.174;2023-06-22T03:58:16;21.90;99.90
674;DHT22;319;48.764;9.174;2023-06-22T04:00:44;21.90;99.90
674;DHT22;319;48.764;9.174;2023-06-22T04:03:13;22.00;99.90
674;DHT22;319;48.764;9.174;2023-06-22T04:05:40;22.00;99.90
674;DHT22;319;48.764;9.174;2023-06-22T04:08:07;22.10;99.90
674;DHT22;319;48.764;9.174;2023-06-22T04:10:34;22.20;99.90
674;DHT22;319;48.764;9.174;2023-06-22T04:13:01;22.20;99.90
674;DHT22;319;48.764;9.174;2023-06-22T04:15:28;22.40;99.90
674;DHT22;319;48.764;9.174;2023-06-22T04:17:55;22.40;99.90
674;DHT22;319;48.764;9.174;2023-06-22T04:20:24;22.50;99.90
674;DHT22;319;48.764;9.174;2023-06-22T04:22:52;22.60;99.90
674;DHT22;319;48.764;9.174;2023-06-22T04:25:19;22.70;99.90
674;DHT22;319;48.764;9.174;2023-06-22T04:27:46;22.70;99.90
674;DHT22;319;48.764;9.174;2023-06-22T04:30:14;22.80;99.90
674;DHT22;319;48.764;9.174;2023-06-22T04:32:42;22.90;99.90
674;DHT22;319;48.764;9.174;2023-06-22T04:35:10;22.90;99.90
674;DHT22;319;48.764;9.174;2023-06-22T04:37:38;23.00;99.90
674;DHT22;319;48.764;9.174;2023-06-22T04:40:06;23.30;99.90
674;DHT22;319;48.764;9.174;2023-06-22T04:42:34;23.70;99.90
674;DHT22;319;48.764;9.174;2023-06-22T04:45:02;24.20;99.90
674;DHT22;319;48.764;9.174;2023-06-22T04:47:30;24.70;99.90
674;DHT22;319;48.764;9.174;2023-06-22T04:49:57;25.20;99.90
674;DHT22;319;48.764;9.174;2023-06-22T04:52:24;25.60;99.90
674;DHT22;319;48.764;9.174;2023-06-22T04:54:52;26.00;99.70
674;DHT22;319;48.764;9.174;2023-06-22T04:57:21;26.30;98.80
674;DHT22;319;48.764;9.174;2023-06-22T04:59:58;26.60;97.90
674;DHT22;319;48.764;9.174;2023-06-22T05:02:36;26.70;97.50
674;DHT22;319;48.764;9.174;2023-06-22T05:05:05;26.70;97.40
674;DHT22;319;48.764;9.174;2023-06-22T05:07:33;26.60;97.30
674;DHT22;319;48.764;9.174;2023-06-22T05:10:02;26.40;97.40
674;DHT22;319;48.764;9.174;2023-06-22T05:12:29;26.20;97.70
674;DHT22;319;48.764;9.174;2023-06-22T05:14:56;26.10;98.00
674;DHT22;319;48.764;9.174;2023-06-22T05:17:23;25.90;98.20
674;DHT22;319;48.764;9.174;2023-06-22T05:19:50;25.90;98.40
674;DHT22;319;48.764;9.174;2023-06-22T05:22:17;25.70;98.50
674;DHT22;319;48.764;9.174;2023-06-22T05:24:44;25.60;98.90
674;DHT22;319;48.764;9.174;2023-06-22T05:27:12;25.50;99.10
674;DHT22;319;48.764;9.174;2023-06-22T05:29:43;25.50;99.10
674;DHT22;319;48.764;9.174;2023-06-22T05:32:19;25.40;99.20
674;DHT22;319;48.764;9.174;2023-06-22T05:34:46;25.50;99.30
674;DHT22;319;48.764;9.174;2023-06-22T05:37:13;25.60;99.20
674;DHT22;319;48.764;9.174;2023-06-22T05:39:40;25.70;99.00
674;DHT22;319;48.764;9.174;2023-06-22T05:42:07;25.80;98.80
674;DHT22;319;48.764;9.174;2023-06-22T05:44:36;26.00;98.50
674;DHT22;319;48.764;9.174;2023-06-22T05:47:03;26.00;98.20
674;DHT22;319;48.764;9.174;2023-06-22T05:49:30;26.10;98.20
674;DHT22;319;48.764;9.174;2023-06-22T05:51:58;26.20;97.80
674;DHT22;319;48.764;9.174;2023-06-22T05:54:26;26.20;97.90
674;DHT22;319;48.764;9.174;2023-06-22T05:56:53;26.40;97.60
674;DHT22;319;48.764;9.174;2023-06-22T05:59:20;26.20;97.40
674;DHT22;319;48.764;9.174;2023-06-22T06:01:48;26.20;97.30
674;DHT22;319;48.764;9.174;2023-06-22T06:04:17;26.30;97.60
674;DHT22;319;48.764;9.174;2023-06-22T06:06:46;26.30;97.10
674;DHT22;319;48.764;9.174;2023-06-22T06:09:13;26.30;97.30
674;DHT22;319;48.764;9.174;2023-06-22T06:11:40;26.40;97.10
674;DHT22;319;48.764;9.174;2023-06-22T06:14:07;26.50;96.80
674;DHT22;319;48.764;9.174;2023-06-22T06:16:34;26.60;96.70
674;DHT22;319;48.764;9.174;2023-06-22T06:19:03;26.70;96.20
674;DHT22;319;48.764;9.174;2023-06-22T06:21:30;27.00;95.90
674;DHT22;319;48.764;9.174;2023-06-22T06:23:57;27.50;95.30
674;DHT22;319;48.764;9.174;2023-06-22T06:26:24;28.20;94.20
674;DHT22;319;48.764;9.174;2023-06-22T06:28:53;28.80;93.00
674;DHT22;319;48.764;9.174;2023-06-22T06:31:21;29.80;91.70
674;DHT22;319;48.764;9.174;2023-06-22T06:33:48;30.60;89.80
674;DHT22;319;48.764;9.174;2023-06-22T06:36:16;31.60;86.40
674;DHT22;319;48.764;9.174;2023-06-22T06:38:43;32.20;84.00
674;DHT22;319;48.764;9.174;2023-06-22T06:41:13;33.10;80.70
674;DHT22;319;48.764;9.174;2023-06-22T06:43:40;33.90;77.10
674;DHT22;319;48.764;9.174;2023-06-22T06:46:08;34.10;74.40
674;DHT22;319;48.764;9.174;2023-06-22T06:48:35;34.30;73.20
674;DHT22;319;48.764;9.174;2023-06-22T06:51:02;34.90;71.20
674;DHT22;319;48.764;9.174;2023-06-22T06:53:30;35.60;68.80
674;DHT22;319;48.764;9.174;2023-06-22T06:55:57;36.00;66.50
674;DHT22;319;48.764;9.174;2023-06-22T06:58:24;36.30;64.40
674;DHT22;319;48.764;9.174;2023-06-22T07:00:51;36.60;62.90
674;DHT22;319;48.764;9.174;2023-06-22T07:03:18;36.80;61.10
674;DHT22;319;48.764;9.174;2023-06-22T07:05:45;36.90;60.30
674;DHT22;319;48.764;9.174;2023-06-22T07:08:12;37.00;60.10
674;DHT22;319;48.764;9.174;2023-06-22T07:10:40;37.00;58.80
674;DHT22;319;48.764;9.174;2023-06-22T07:13:07;37.40;58.40
674;DHT22;319;48.764;9.174;2023-06-22T07:15:37;38.00;57.10
674;DHT22;319;48.764;9.174;2023-06-22T07:18:04;38.40;55.70
674;DHT22;319;48.764;9.174;2023-06-22T07:20:31;38.50;54.80
674;DHT22;319;48.764;9.174;2023-06-22T07:22:58;38.70;53.80
674;DHT22;319;48.764;9.174;2023-06-22T07:25:25;38.30;54.30
674;DHT22;319;48.764;9.174;2023-06-22T07:28:04;38.20;54.40
674;DHT22;319;48.764;9.174;2023-06-22T07:30:32;38.10;54.00
674;DHT22;319;48.764;9.174;2023-06-22T07:32:59;38.30;53.70
674;DHT22;319;48.764;9.174;2023-06-22T07:35:29;38.40;53.10
674;DHT22;319;48.764;9.174;2023-06-22T07:37:56;38.30;53.50
674;DHT22;319;48.764;9.174;2023-06-22T07:40:23;38.10;53.40
674;DHT22;319;48.764;9.174;2023-06-22T07:42:52;37.80;53.30
674;DHT22;319;48.764;9.174;2023-06-22T07:45:21;37.60;54.10
674;DHT22;319;48.764;9.174;2023-06-22T07:47:48;37.00;54.60
674;DHT22;319;48.764;9.174;2023-06-22T07:50:15;37.40;54.70
674;DHT22;319;48.764;9.174;2023-06-22T07:52:41;37.70;53.30
674;DHT22;319;48.764;9.174;2023-06-22T07:55:09;38.20;53.30
674;DHT22;319;48.764;9.174;2023-06-22T07:57:36;38.50;52.20
674;DHT22;319;48.764;9.174;2023-06-22T08:00:04;38.80;51.70
674;DHT22;319;48.764;9.174;2023-06-22T08:02:39;38.60;51.50
674;DHT22;319;48.764;9.174;2023-06-22T08:05:07;38.60;51.00
674;DHT22;319;48.764;9.174;2023-06-22T08:07:34;38.80;50.50
674;DHT22;319;48.764;9.174;2023-06-22T08:10:03;38.90;49.90
674;DHT22;319;48.764;9.174;2023-06-22T08:12:31;39.50;49.40
674;DHT22;319;48.764;9.174;2023-06-22T08:14:58;39.40;49.40
674;DHT22;319;48.764;9.174;2023-06-22T08:17:26;39.70;49.00
674;DHT22;319;48.764;9.174;2023-06-22T08:19:54;39.70;47.90
674;DHT22;319;48.764;9.174;2023-06-22T08:22:21;39.50;47.60
674;DHT22;319;48.764;9.174;2023-06-22T08:24:48;38.60;48.10
674;DHT22;319;48.764;9.174;2023-06-22T08:27:15;37.90;49.90
674;DHT22;319;48.764;9.174;2023-06-22T08:29:43;37.00;51.00
674;DHT22;319;48.764;9.174;2023-06-22T08:32:11;36.30;52.70
674;DHT22;319;48.764;9.174;2023-06-22T08:34:38;35.90;53.60
674;DHT22;319;48.764;9.174;2023-06-22T08:37:09;35.60;54.40
674;DHT22;319;48.764;9.174;2023-06-22T08:39:35;35.70;54.90
674;DHT22;319;48.764;9.174;2023-06-22T08:42:03;36.20;54.40
674;DHT22;319;48.764;9.174;2023-06-22T08:44:32;36.40;53.30
674;DHT22;319;48.764;9.174;2023-06-22T08:46:59;36.50;53.40
674;DHT22;319;48.764;9.174;2023-06-22T08:49:26;36.50;53.00
674;DHT22;319;48.764;9.174;2023-06-22T08:51:53;36.60;52.90
674;DHT22;319;48.764;9.174;2023-06-22T08:54:23;36.40;53.30
674;DHT22;319;48.764;9.174;2023-06-22T08:56:50;35.90;54.10
674;DHT22;319;48.764;9.174;2023-06-22T08:59:17;35.90;54.80
674;DHT22;319;48.764;9.174;2023-06-22T09:01:45;36.10;54.50
674;DHT22;319;48.764;9.174;2023-06-22T09:04:14;36.60;54.20
674;DHT22;319;48.764;9.174;2023-06-22T09:06:41;36.60;53.60
674;DHT22;319;48.764;9.174;2023-06-22T09:09:10;36.10;54.20
674;DHT22;319;48.764;9.174;2023-06-22T09:11:38;35.90;54.70
674;DHT22;319;48.764;9.174;2023-06-22T09:14:09;35.70;55.00
674;DHT22;319;48.764;9.174;2023-06-22T09:16:36;35.30;55.70
674;DHT22;319;48.764;9.174;2023-06-22T09:19:02;35.20;56.50
674;DHT22;319;48.764;9.174;2023-06-22T09:21:29;35.30;55.60
674;DHT22;319;48.764;9.174;2023-06-22T09:23:56;35.80;55.60
674;DHT22;319;48.764;9.174;2023-06-22T09:26:23;36.50;54.60
674;DHT22;319;48.764;9.174;2023-06-22T09:28:51;36.80;53.50
674;DHT22;319;48.764;9.174;2023-06-22T09:31:18;36.50;53.40
674;DHT22;319;48.764;9.174;2023-06-22T09:33:51;36.30;54.00
674;DHT22;319;48.764;9.174;2023-06-22T09:36:20;36.10;54.10
674;DHT22;319;48.764;9.174;2023-06-22T09:38:48;35.70;54.80
674;DHT22;319;48.764;9.174;2023-06-22T09:41:21;35.50;55.40
674;DHT22;319;48.764;9.174;2023-06-22T09:43:49;35.40;55.80
674;DHT22;319;48.764;9.174;2023-06-22T09:46:17;35.20;56.30
674;DHT22;319;48.764;9.174;2023-06-22T09:48:47;35.10;57.20
674;DHT22;319;48.764;9.174;2023-06-22T09:51:14;34.70;56.90
674;DHT22;319;48.764;9.174;2023-06-22T09:53:41;34.60;57.80
674;DHT22;319;48.764;9.174;2023-06-22T09:56:08;34.70;57.50
674;DHT22;319;48.764;9.174;2023-06-22T09:58:40;34.70;57.90
674;DHT22;319;48.764;9.174;2023-06-22T10:01:07;34.70;57.80
674;DHT22;319;48.764;9.174;2023-06-22T10:03:35;34.60;57.50
674;DHT22;319;48.764;9.174;2023-06-22T10:06:02;34.30;58.10
674;DHT22;319;48.764;9.174;2023-06-22T10:08:29;34.30;59.10
674;DHT22;319;48.764;9.174;2023-06-22T10:10:56;34.10;59.30
674;DHT22;319;48.764;9.174;2023-06-22T10:13:23;33.90;60.00
674;DHT22;319;48.764;9.174;2023-06-22T10:15:50;33.80;60.80
674;DHT22;319;48.764;9.174;2023-06-22T10:18:17;33.70;60.10
674;DHT22;319;48.764;9.174;2023-06-22T10:20:48;33.70;60.20
674;DHT22;319;48.764;9.174;2023-06-22T10:23:15;34.00;59.50
674;DHT22;319;48.764;9.174;2023-06-22T10:25:42;34.10;59.60
674;DHT22;319;48.764;9.174;2023-06-22T10:28:09;34.10;59.30
674;DHT22;319;48.764;9.174;2023-06-22T10:30:36;34.20;59.50
674;DHT22;319;48.764;9.174;2023-06-22T10:33:03;34.20;59.20
674;DHT22;319;48.764;9.174;2023-06-22T10:35:30;34.30;59.50
674;DHT22;319;48.764;9.174;2023-06-22T10:37:58;34.30;59.70
674;DHT22;319;48.764;9.174;2023-06-22T10:40:25;34.50;59.60
674;DHT22;319;48.764;9.174;2023-06-22T10:42:52;34.80;59.10
674;DHT22;319;48.764;9.174;2023-06-22T10:45:19;34.90;58.10
674;DHT22;319;48.764;9.174;2023-06-22T10:47:46;34.60;58.60
674;DHT22;319;48.764;9.174;2023-06-22T10:50:13;34.50;59.10
674;DHT22;319;48.764;9.174;2023-06-22T10:52:40;34.50;58.80
674;DHT22;319;48.764;9.174;2023-06-22T10:55:09;34.70;58.80
674;DHT22;319;48.764;9.174;2023-06-22T10:57:37;34.50;58.30
674;DHT22;319;48.764;9.174;2023-06-22T11:00:06;34.60;58.80
674;DHT22;319;48.764;9.174;2023-06-22T11:02:37;34.40;59.00
674;DHT22;319;48.764;9.174;2023-06-22T11:05:10;34.30;59.80
674;DHT22;319;48.764;9.174;2023-06-22T11:07:37;34.10;60.60
674;DHT22;319;48.764;9.174;2023-06-22T11:10:09;34.20;60.60
674;DHT22;319;48.764;9.174;2023-06-22T11:12:36;34.20;60.50
674;DHT22;319;48.764;9.174;2023-06-22T11:15:03;34.40;60.70
674;DHT22;319;48.764;9.174;2023-06-22T11:17:30;34.50;60.50
674;DHT22;319;48.764;9.174;2023-06-22T11:19:57;34.50;60.30
674;DHT22;319;48.764;9.174;2023-06-22T11:22:26;34.50;60.50
674;DHT22;319;48.764;9.174;2023-06-22T11:24:53;34.40;59.20
674;DHT22;319;48.764;9.174;2023-06-22T11:27:23;34.50;59.10
674;DHT22;319;48.764;9.174;2023-06-22T11:29:50;34.50;59.40
674;DHT22;319;48.764;9.174;2023-06-22T11:32:18;34.50;59.00
674;DHT22;319;48.764;9.174;2023-06-22T11:34:45;34.50;58.10
674;DHT22;319;48.764;9.174;2023-06-22T11:37:12;34.40;58.10
674;DHT22;319;48.764;9.174;2023-06-22T11:39:39;34.30;59.50
674;DHT22;319;48.764;9.174;2023-06-22T11:42:06;34.40;60.10
674;DHT22;319;48.764;9.174;2023-06-22T11:44:35;34.40;60.00
674;DHT22;319;48.764;9.174;2023-06-22T11:47:02;34.70;59.90
674;DHT22;319;48.764;9.174;2023-06-22T11:49:30;34.90;59.50
674;DHT22;319;48.764;9.174;2023-06-22T11:51:57;35.10;59.90
674;DHT22;319;48.764;9.174;2023-06-22T11:54:24;35.20;59.60
674;DHT22;319;48.764;9.174;2023-06-22T11:56:51;35.30;59.90
674;DHT22;319;48.764;9.174;2023-06-22T11:59:18;35.40;59.70
674;DHT22;319;48.764;9.174;2023-06-22T12:01:47;35.60;59.50
674;DHT22;319;48.764;9.174;2023-06-22T12:04:14;35.80;59.00
674;DHT22;319;48.764;9.174;2023-06-22T12:06:41;35.80;58.60
674;DHT22;319;48.764;9.174;2023-06-22T12:09:09;35.50;58.40
674;DHT22;319;48.764;9.174;2023-06-22T12:11:36;35.50;58.80
674;DHT22;319;48.764;9.174;2023-06-22T12:14:03;35.50;58.80
674;DHT22;319;48.764;9.174;2023-06-22T12:16:30;35.40;58.30
674;DHT22;319;48.764;9.174;2023-06-22T12:18:58;35.40;58.90
674;DHT22;319;48.764;9.174;2023-06-22T12:21:25;35.40;59.10
674;DHT22;319;48.764;9.174;2023-06-22T12:23:54;35.40;59.10
674;DHT22;319;48.764;9.174;2023-06-22T12:26:21;35.40;58.70
674;DHT22;319;48.764;9.174;2023-06-22T12:28:48;35.40;58.60
674;DHT22;319;48.764;9.174;2023-06-22T12:31:15;35.20;58.60
674;DHT22;319;48.764;9.174;2023-06-22T12:33:42;35.20;58.60
674;DHT22;319;48.764;9.174;2023-06-22T12:36:10;35.20;59.70
674;DHT22;319;48.764;9.174;2023-06-22T12:38:40;35.20;58.90
674;DHT22;319;48.764;9.174;2023-06-22T12:41:07;35.10;59.20
674;DHT22;319;48.764;9.174;2023-06-22T12:43:34;35.00;59.60
674;DHT22;319;48.764;9.174;2023-06-22T12:46:01;34.80;59.80
674;DHT22;319;48.764;9.174;2023-06-22T12:48:28;34.60;60.50
674;DHT22;319;48.764;9.174;2023-06-22T12:50:57;34.60;60.70
674;DHT22;319;48.764;9.174;2023-06-22T12:53:25;34.60;60.90
674;DHT22;319;48.764;9.174;2023-06-22T12:55:53;34.40;61.60
674;DHT22;319;48.764;9.174;2023-06-22T12:58:20;34.20;62.30
674;DHT22;319;48.764;9.174;2023-06-22T13:00:46;34.10;62.60
674;DHT22;319;48.764;9.174;2023-06-22T13:03:13;34.10;63.10
674;DHT22;319;48.764;9.174;2023-06-22T13:05:40;34.10;63.00
674;DHT22;319;48.764;9.174;2023-06-22T13:08:07;34.10;63.00
674;DHT22;319;48.764;9.174;2023-06-22T13:10:36;34.10;62.50
674;DHT22;319;48.764;9.174;2023-06-22T13:13:06;34.10;63.10
674;DHT22;319;48.764;9.174;2023-06-22T13:15:38;34.10;63.00
674;DHT22;319;48.764;9.174;2023-06-22T13:18:05;34.20;63.10
674;DHT22;319;48.764;9.174;2023-06-22T13:20:35;34.20;63.10
674;DHT22;319;48.764;9.174;2023-06-22T13:23:02;34.20;63.30
674;DHT22;319;48.764;9.174;2023-06-22T13:25:29;34.40;63.00
674;DHT22;319;48.764;9.174;2023-06-22T13:27:57;34.50;62.30
674;DHT22;319;48.764;9.174;2023-06-22T13:30:24;34.70;62.30
674;DHT22;319;48.764;9.174;2023-06-22T13:32:51;34.90;62.10
674;DHT22;319;48.764;9.174;2023-06-22T13:35:18;35.00;60.20
674;DHT22;319;48.764;9.174;2023-06-22T13:37:44;35.20;59.80
674;DHT22;319;48.764;9.174;2023-06-22T13:40:11;35.00;59.40
674;DHT22;319;48.764;9.174;2023-06-22T13:42:38;35.00;59.50
674;DHT22;319;48.764;9.174;2023-06-22T13:45:08;34.90;59.40
674;DHT22;319;48.764;9.174;2023-06-22T13:47:35;34.80;59.60
674;DHT22;319;48.764;9.174;2023-06-22T13:50:02;34.90;59.90
674;DHT22;319;48.764;9.174;2023-06-22T13:52:32;35.10;59.90
674;DHT22;319;48.764;9.174;2023-06-22T13:54:58;35.20;59.50
674;DHT22;319;48.764;9.174;2023-06-22T13:57:25;35.30;59.30
674;DHT22;319;48.764;9.174;2023-06-22T13:59:52;35.30;58.60
674;DHT22;319;48.764;9.174;2023-06-22T14:02:21;35.30;58.20
674;DHT22;319;48.764;9.174;2023-06-22T14:04:48;35.50;58.30
674;DHT22;319;48.764;9.174;2023-06-22T14:07:14;35.50;58.30
674;DHT22;319;48.764;9.174;2023-06-22T14:09:44;35.60;58.20
674;DHT22;319;48.764;9.174;2023-06-22T14:12:12;35.50;57.40
674;DHT22;319;48.764;9.174;2023-06-22T14:14:39;35.50;56.00
674;DHT22;319;48.764;9.174;2023-06-22T14:17:06;35.70;56.80
674;DHT22;319;48.764;9.174;2023-06-22T14:19:34;35.90;56.70
674;DHT22;319;48.764;9.174;2023-06-22T14:22:01;36.00;55.80
674;DHT22;319;48.764;9.174;2023-06-22T14:24:27;36.00;55.10
674;DHT22;319;48.764;9.174;2023-06-22T14:26:55;36.00;54.50
674;DHT22;319;48.764;9.174;2023-06-22T14:29:22;35.80;53.90
674;DHT22;319;48.764;9.174;2023-06-22T14:31:49;35.60;53.60
674;DHT22;319;48.764;9.174;2023-06-22T14:34:16;35.50;54.10
674;DHT22;319;48.764;9.174;2023-06-22T14:36:44;35.30;54.30
674;DHT22;319;48.764;9.174;2023-06-22T14:39:11;35.20;52.50
674;DHT22;319;48.764;9.174;2023-06-22T14:41:38;35.00;54.00
674;DHT22;319;48.764;9.174;2023-06-22T14:44:04;35.00;52.80
674;DHT22;319;48.764;9.174;2023-06-22T14:46:31;35.00;51.80
674;DHT22;319;48.764;9.174;2023-06-22T14:48:58;35.10;51.80
674;DHT22;319;48.764;9.174;2023-06-22T14:51:25;34.90;51.50
674;DHT22;319;48.764;9.174;2023-06-22T14:53:53;34.90;50.90
674;DHT22;319;48.764;9.174;2023-06-22T14:56:20;34.70;48.80
674;DHT22;319;48.764;9.174;2023-06-22T14:58:47;34.60;47.00
674;DHT22;319;48.764;9.174;2023-06-22T15:01:17;34.60;45.50
674;DHT22;319;48.764;9.174;2023-06-22T15:03:44;34.50;45.10
674;DHT22;319;48.764;9.174;2023-06-22T15:06:11;34.40;45.50
674;DHT22;319;48.764;9.174;2023-06-22T15:08:38;34.30;45.70
674;DHT22;319;48.764;9.174;2023-06-22T15:11:08;34.20;45.50
674;DHT22;319;48.764;9.174;2023-06-22T15:13:38;34.10;45.50
674;DHT22;319;48.764;9.174;2023-06-22T15:16:06;34.10;45.60
674;DHT22;319;48.764;9.174;2023-06-22T15:18:33;34.00;46.00
674;DHT22;319;48.764;9.174;2023-06-22T15:21:01;34.10;45.30
674;DHT22;319;48.764;9.174;2023-06-22T15:23:28;34.10;45.50
674;DHT22;319;48.764;9.174;2023-06-22T15:25:55;34.20;45.60
674;DHT22;319;48.764;9.174;2023-06-22T15:28:23;34.20;45.40
674;DHT22;319;48.764;9.174;2023-06-22T15:30:50;34.10;45.10
674;DHT22;319;48.764;9.174;2023-06-22T15:33:18;33.90;45.30
674;DHT22;319;48.764;9.174;2023-06-22T15:35:45;33.80;45.90
674;DHT22;319;48.764;9.174;2023-06-22T15:38:12;33.80;45.10
674;DHT22;319;48.764;9.174;2023-06-22T15:40:39;33.80;44.80
674;DHT22;319;48.764;9.174;2023-06-22T15:43:10;33.80;44.70
674;DHT22;319;48.764;9.174;2023-06-22T15:45:39;33.90;45.00
674;DHT22;319;48.764;9.174;2023-06-22T15:48:06;34.10;44.70
674;DHT22;319;48.764;9.174;2023-06-22T15:50:37;34.20;44.80
674;DHT22;319;48.764;9.174;2023-06-22T15:53:04;34.30;44.50
674;DHT22;319;48.764;9.174;2023-06-22T15:55:31;34.30;45.10
674;DHT22;319;48.764;9.174;2023-06-22T15:57:58;34.40;44.80
674;DHT22;319;48.764;9.174;2023-06-22T16:00:24;34.20;44.80
674;DHT22;319;48.764;9.174;2023-06-22T16:02:53;34.00;45.30
674;DHT22;319;48.764;9.174;2023-06-22T16:05:20;33.90;45.60
674;DHT22;319;48.764;9.174;2023-06-22T16:07:47;33.80;45.90
674;DHT22;319;48.764;9.174;2023-06-22T16:10:14;33.80;46.20
674;DHT22;319;48.764;9.174;2023-06-22T16:12:42;33.60;46.40
674;DHT22;319;48.764;9.174;2023-06-22T16:15:10;33.50;46.80
674;DHT22;319;48.764;9.174;2023-06-22T16:17:37;33.50;47.10
674;DHT22;319;48.764;9.174;2023-06-22T16:20:06;33.30;47.50
674;DHT22;319;48.764;9.174;2023-06-22T16:22:34;33.20;47.60
674;DHT22;319;48.764;9.174;2023-06-22T16:25:01;33.20;47.90
674;DHT22;319;48.764;9.174;2023-06-22T16:27:29;33.10;48.20
674;DHT22;319;48.764;9.174;2023-06-22T16:29:57;33.00;48.80
674;DHT22;319;48.764;9.174;2023-06-22T16:32:24;32.80;49.10
674;DHT22;319;48.764;9.174;2023-06-22T16:34:51;32.90;49.40
674;DHT22;319;48.764;9.174;2023-06-22T16:37:20;32.90;49.20